createdAt,value
2023-05-21T00:00:00.242Z,89002.31
2023-05-21T00:02:27.191Z,89001.06
2023-05-21T00:04:54.113Z,89003.47
2023-05-21T00:07:20.981Z,89003.22
2023-05-21T00:09:47.957Z,88996.66
2023-05-21T00:12:14.881Z,88993.19
2023-05-21T00:14:41.754Z,88997.56
2023-05-21T00:17:08.673Z,89000.22
2023-05-21T00:19:36.016Z,89003.81
2023-05-21T00:22:02.838Z,88997.75
2023-05-21T00:24:29.983Z,88991.47
2023-05-21T00:26:56.865Z,88989.38
2023-05-21T00:29:24.172Z,88981.13
2023-05-21T00:31:51.204Z,88983.59
2023-05-21T00:34:18.279Z,88984.38
2023-05-21T00:36:46.401Z,88981.41
2023-05-21T00:39:13.991Z,88988.41
2023-05-21T00:41:40.889Z,88985.44
2023-05-21T00:44:07.798Z,88990.28
2023-05-21T00:46:35.288Z,88994.63
2023-05-21T00:49:02.235Z,88990.97
2023-05-21T00:51:29.350Z,88995.81
2023-05-21T00:53:58.018Z,88999.19
2023-05-21T00:56:25.441Z,88998.03
2023-05-21T00:58:52.656Z,89001.84
2023-05-21T01:01:21.106Z,88997.66
2023-05-21T01:03:48.054Z,89000.84
2023-05-21T01:06:14.925Z,89001.38
2023-05-21T01:08:42.217Z,89014.09
2023-05-21T01:11:11.039Z,89016.31
2023-05-21T01:13:40.786Z,89011.75
2023-05-21T01:16:09.378Z,89015.88
2023-05-21T01:18:36.504Z,89010.53
2023-05-21T01:21:04.634Z,89013.47
2023-05-21T01:23:32.513Z,89023.38
2023-05-21T01:25:59.515Z,89023.81
2023-05-21T01:28:26.426Z,89023.16
2023-05-21T01:30:53.621Z,89027.06
2023-05-21T01:33:29.879Z,89019.53
2023-05-21T01:36:05.064Z,89016.09
2023-05-21T01:38:41.518Z,89024.56
2023-05-21T01:41:11.738Z,89022.88
2023-05-21T01:43:44.489Z,89019.94
2023-05-21T01:46:18.142Z,89025.31
2023-05-21T01:48:45.373Z,89024.56
2023-05-21T01:51:13.046Z,89031.09
2023-05-21T01:53:40.920Z,89019.69
2023-05-21T01:56:08.314Z,89021.50
2023-05-21T01:58:35.257Z,89016.44
2023-05-21T02:01:02.262Z,89020.78
2023-05-21T02:03:29.267Z,89021.00
2023-05-21T02:05:56.138Z,89017.31
2023-05-21T02:08:23.178Z,89023.34
2023-05-21T02:10:50.677Z,89023.34
2023-05-21T02:13:17.639Z,89020.97
2023-05-21T02:15:44.570Z,89033.09
2023-05-21T02:18:11.638Z,89039.19
2023-05-21T02:20:38.581Z,89038.47
2023-05-21T02:23:05.609Z,89038.47
2023-05-21T02:25:32.442Z,89037.97
2023-05-21T02:27:59.346Z,89045.50
2023-05-21T02:30:26.255Z,89047.19
2023-05-21T02:32:53.846Z,89046.97
2023-05-21T02:35:21.005Z,89037.50
2023-05-21T02:37:48.018Z,89037.97
2023-05-21T02:40:14.921Z,89038.16
2023-05-21T02:42:42.266Z,89039.50
2023-05-21T02:45:10.504Z,89040.16
2023-05-21T02:47:37.472Z,89040.16
2023-05-21T02:50:07.189Z,89038.19
2023-05-21T02:52:34.055Z,89045.44
2023-05-21T02:55:01.145Z,89044.63
2023-05-21T02:57:28.028Z,89052.06
2023-05-21T02:59:55.028Z,89047.22
2023-05-21T03:02:21.970Z,89050.06
2023-05-21T03:04:48.934Z,89056.00
2023-05-21T03:07:16.648Z,89053.63
2023-05-21T03:09:43.491Z,89054.63
2023-05-21T03:12:10.820Z,89056.34
2023-05-21T03:14:38.029Z,89048.38
2023-05-21T03:17:05.175Z,89052.97
2023-05-21T03:19:32.908Z,89048.09
2023-05-21T03:21:59.862Z,89056.81
2023-05-21T03:24:26.701Z,89055.34
2023-05-21T03:26:53.540Z,89052.66
2023-05-21T03:29:20.424Z,89045.81
2023-05-21T03:31:47.355Z,89044.81
2023-05-21T03:34:14.273Z,89050.38
2023-05-21T03:36:41.114Z,89049.81
2023-05-21T03:39:07.960Z,89062.63
2023-05-21T03:41:34.881Z,89047.56
2023-05-21T03:44:01.771Z,89058.13
2023-05-21T03:46:28.657Z,89053.06
2023-05-21T03:48:55.551Z,89056.44
2023-05-21T03:51:22.451Z,89062.31
2023-05-21T03:53:49.262Z,89063.47
2023-05-21T03:56:16.184Z,89064.63
2023-05-21T03:58:43.117Z,89061.66
2023-05-21T04:01:10.215Z,89058.91
2023-05-21T04:03:39.941Z,89064.72
2023-05-21T04:06:07.671Z,89065.50
2023-05-21T04:08:34.546Z,89066.84
2023-05-21T04:11:01.388Z,89076.13
2023-05-21T04:13:28.278Z,89068.38
2023-05-21T04:15:55.217Z,89076.84
2023-05-21T04:18:22.123Z,89066.59
2023-05-21T04:20:49.092Z,89076.97
2023-05-21T04:23:15.944Z,89076.91
2023-05-21T04:25:42.816Z,89080.06
2023-05-21T04:28:09.712Z,89076.41
2023-05-21T04:30:36.571Z,89070.84
2023-05-21T04:33:03.952Z,89078.84
2023-05-21T04:35:30.864Z,89085.34
2023-05-21T04:37:57.757Z,89075.56
2023-05-21T04:40:24.610Z,89079.06
2023-05-21T04:42:51.676Z,89080.38
2023-05-21T04:45:18.863Z,89081.78
2023-05-21T04:47:45.816Z,89095.25
2023-05-21T04:50:12.897Z,89097.50
2023-05-21T04:52:40.276Z,89094.44
2023-05-21T04:55:10.445Z,89095.06
2023-05-21T04:57:37.598Z,89104.66
2023-05-21T05:00:04.878Z,89104.41
2023-05-21T05:02:31.864Z,89106.28
2023-05-21T05:04:58.890Z,89102.22
2023-05-21T05:07:25.720Z,89104.19
2023-05-21T05:09:55.598Z,89101.28
2023-05-21T05:12:25.596Z,89102.44
2023-05-21T05:14:52.462Z,89099.25
2023-05-21T05:17:19.404Z,89105.28
2023-05-21T05:19:46.333Z,89110.16
2023-05-21T05:22:13.672Z,89103.31
2023-05-21T05:24:40.670Z,89103.25
2023-05-21T05:27:09.241Z,89098.56
2023-05-21T05:29:36.044Z,89097.78
2023-05-21T05:32:02.967Z,89091.78
2023-05-21T05:34:29.877Z,89099.28
2023-05-21T05:36:58.830Z,89095.13
2023-05-21T05:39:25.731Z,89106.25
2023-05-21T05:41:52.644Z,89099.72
2023-05-21T05:44:19.676Z,89098.81
2023-05-21T05:46:46.611Z,89088.78
2023-05-21T05:49:13.703Z,89093.88
2023-05-21T05:51:40.869Z,89089.16
2023-05-21T05:54:07.870Z,89082.56
2023-05-21T05:56:34.848Z,89085.53
2023-05-21T05:59:01.750Z,89077.53
2023-05-21T06:01:28.680Z,89082.25
2023-05-21T06:03:55.720Z,89081.47
2023-05-21T06:06:22.707Z,89075.81
2023-05-21T06:08:49.660Z,89078.78
2023-05-21T06:11:16.580Z,89076.84
2023-05-21T06:13:43.534Z,89085.91
2023-05-21T06:16:10.558Z,89078.84
2023-05-21T06:18:38.129Z,89076.47
2023-05-21T06:21:05.025Z,89071.84
2023-05-21T06:23:34.765Z,89077.78
2023-05-21T06:26:01.703Z,89084.38
2023-05-21T06:28:31.468Z,89078.78
2023-05-21T06:31:01.100Z,89086.50
2023-05-21T06:33:28.129Z,89082.63
2023-05-21T06:35:55.345Z,89076.63
2023-05-21T06:38:22.211Z,89080.03
2023-05-21T06:40:52.272Z,89076.13
2023-05-21T06:43:19.139Z,89066.50
2023-05-21T06:45:46.332Z,89066.56
2023-05-21T06:48:13.261Z,89067.22
2023-05-21T06:50:40.121Z,89069.81
2023-05-21T06:53:06.970Z,89067.44
2023-05-21T06:55:34.144Z,89058.00
2023-05-21T06:58:01.157Z,89056.38
2023-05-21T07:00:28.216Z,89049.31
2023-05-21T07:02:58.001Z,89057.38
2023-05-21T07:05:24.965Z,89045.94
2023-05-21T07:07:51.838Z,89051.06
2023-05-21T07:10:21.517Z,89040.72
2023-05-21T07:12:48.391Z,89033.94
2023-05-21T07:15:17.830Z,89040.19
2023-05-21T07:17:45.119Z,89045.97
2023-05-21T07:20:12.935Z,89048.94
2023-05-21T07:22:39.912Z,89040.28
2023-05-21T07:25:07.389Z,89038.72
2023-05-21T07:27:34.376Z,89036.22
2023-05-21T07:30:01.275Z,89042.34
2023-05-21T07:32:31.059Z,89039.00
2023-05-21T07:35:00.651Z,89033.50
2023-05-21T07:37:27.691Z,89041.34
2023-05-21T07:40:01.133Z,89035.59
2023-05-21T07:42:28.107Z,89045.69
2023-05-21T07:44:54.986Z,89044.88
2023-05-21T07:47:22.025Z,89052.69
2023-05-21T07:49:49.332Z,89052.97
2023-05-21T07:52:16.627Z,89052.78
2023-05-21T07:54:43.657Z,89050.03
2023-05-21T07:57:11.355Z,89053.53
2023-05-21T07:59:38.300Z,89055.28
2023-05-21T08:02:05.660Z,89064.00
2023-05-21T08:04:32.738Z,89061.38
2023-05-21T08:07:01.782Z,89052.22
2023-05-21T08:09:28.827Z,89047.47
2023-05-21T08:11:55.859Z,89054.50
2023-05-21T08:14:22.946Z,89050.69
2023-05-21T08:16:49.983Z,89052.53
2023-05-21T08:19:17.076Z,89050.56
2023-05-21T08:21:44.020Z,89044.78
2023-05-21T08:24:11.042Z,89046.22
2023-05-21T08:26:37.914Z,89041.75
2023-05-21T08:29:05.622Z,89051.97
2023-05-21T08:31:32.681Z,89039.72
2023-05-21T08:33:59.616Z,89047.56
2023-05-21T08:36:26.550Z,89039.00
2023-05-21T08:38:53.680Z,89038.59
2023-05-21T08:41:21.646Z,89045.72
2023-05-21T08:43:54.946Z,89040.00
2023-05-21T08:46:24.077Z,89043.59
2023-05-21T08:48:52.208Z,89038.47
2023-05-21T08:51:19.275Z,89036.56
2023-05-21T08:53:49.960Z,89041.69
2023-05-21T08:56:17.868Z,89034.53
2023-05-21T08:58:49.846Z,89047.81
2023-05-21T09:01:16.914Z,89040.50
2023-05-21T09:03:44.340Z,89041.44
2023-05-21T09:06:12.735Z,89042.41
2023-05-21T09:08:52.701Z,89039.72
2023-05-21T09:11:20.017Z,89032.97
2023-05-21T09:13:52.705Z,89024.59
2023-05-21T09:16:19.817Z,89022.97
2023-05-21T09:18:46.771Z,89033.16
2023-05-21T09:21:30.789Z,89020.66
2023-05-21T09:23:59.154Z,89019.31
2023-05-21T09:26:26.734Z,89011.84
2023-05-21T09:28:58.146Z,89009.50
2023-05-21T09:31:25.203Z,89013.28
2023-05-21T09:33:52.063Z,89005.78
2023-05-21T09:36:20.507Z,89009.16
2023-05-21T09:38:53.505Z,89005.47
2023-05-21T09:41:22.112Z,89013.78
2023-05-21T09:43:49.692Z,89014.31
2023-05-21T09:46:20.982Z,89016.84
2023-05-21T09:48:47.928Z,89012.38
2023-05-21T09:51:19.296Z,89015.22
2023-05-21T09:53:55.116Z,89030.00
2023-05-21T09:56:26.946Z,89022.84
2023-05-21T09:58:58.290Z,89025.06
2023-05-21T10:01:25.348Z,89008.75
2023-05-21T10:03:57.798Z,89015.28
2023-05-21T10:06:29.615Z,89021.19
2023-05-21T10:08:57.288Z,89023.09
2023-05-21T10:11:31.974Z,89020.13
2023-05-21T10:14:04.941Z,89018.25
2023-05-21T10:16:34.641Z,89023.69
2023-05-21T10:19:02.237Z,89028.06
2023-05-21T10:21:30.553Z,89009.47
2023-05-21T10:24:02.943Z,89018.53
2023-05-21T10:26:30.601Z,89012.78
2023-05-21T10:28:58.081Z,88999.72
2023-05-21T10:31:26.121Z,89012.59
2023-05-21T10:33:54.245Z,89004.00
2023-05-21T10:36:21.360Z,88996.84
2023-05-21T10:38:48.631Z,88991.25
2023-05-21T10:41:17.393Z,88983.59
2023-05-21T10:44:02.585Z,88989.13
2023-05-21T10:47:00.639Z,88984.63
2023-05-21T10:49:50.725Z,88985.75
2023-05-21T10:52:58.879Z,88979.09
2023-05-21T10:55:40.762Z,88984.00
2023-05-21T10:58:19.885Z,88983.94
2023-05-21T11:00:47.368Z,88982.63
2023-05-21T11:03:15.382Z,88984.03
2023-05-21T11:05:52.908Z,88989.47
2023-05-21T11:08:28.376Z,88989.16
2023-05-21T11:10:58.963Z,88987.50
2023-05-21T11:13:44.589Z,88986.22
2023-05-21T11:16:15.656Z,88987.47
2023-05-21T11:18:51.287Z,88988.50
2023-05-21T11:21:21.381Z,88985.41
2023-05-21T11:23:51.491Z,88984.44
2023-05-21T11:26:29.983Z,88985.94
2023-05-21T11:29:05.890Z,88983.22
2023-05-21T11:31:34.109Z,88975.94
2023-05-21T11:34:21.318Z,88976.00
2023-05-21T11:36:49.706Z,88974.91
2023-05-21T11:39:18.369Z,88973.19
2023-05-21T11:41:59.495Z,88970.41
2023-05-21T11:44:48.604Z,88974.22
2023-05-21T11:47:19.877Z,88981.25
2023-05-21T11:49:47.246Z,88979.22
2023-05-21T11:52:14.710Z,88983.59
2023-05-21T11:54:44.549Z,88977.47
2023-05-21T11:57:12.264Z,88980.66
2023-05-21T11:59:39.147Z,88970.63
2023-05-21T12:02:09.421Z,88972.91
2023-05-21T12:04:40.022Z,88968.09
2023-05-21T12:07:07.702Z,88965.63
2023-05-21T12:09:41.203Z,88967.50
2023-05-21T12:12:19.543Z,88967.00
2023-05-21T12:14:52.233Z,88955.19
2023-05-21T12:17:23.920Z,88959.41
2023-05-21T12:19:57.726Z,88957.88
2023-05-21T12:22:31.208Z,88955.03
2023-05-21T12:25:03.951Z,88960.34
2023-05-21T12:27:31.982Z,88959.06
2023-05-21T12:30:00.494Z,88948.50
2023-05-21T12:32:30.173Z,88951.59
2023-05-21T12:34:57.145Z,88939.59
2023-05-21T12:37:28.074Z,88938.47
2023-05-21T12:39:58.171Z,88944.91
2023-05-21T12:42:29.729Z,88941.63
2023-05-21T12:44:57.759Z,88942.63
2023-05-21T12:47:26.077Z,88936.72
2023-05-21T12:50:00.034Z,88934.84
2023-05-21T12:52:27.467Z,88927.84
2023-05-21T12:54:56.302Z,88939.59
2023-05-21T12:57:26.233Z,88940.97
2023-05-21T12:59:56.407Z,88942.72
2023-05-21T13:02:28.034Z,88941.28
2023-05-21T13:05:04.871Z,88938.09
2023-05-21T13:07:33.716Z,88944.03
2023-05-21T13:10:01.586Z,88943.97
2023-05-21T13:12:31.246Z,88948.47
2023-05-21T13:15:00.229Z,88942.03
2023-05-21T13:17:28.690Z,88937.03
2023-05-21T13:20:13.718Z,88934.50
2023-05-21T13:22:45.374Z,88936.34
2023-05-21T13:25:13.794Z,88933.00
2023-05-21T13:27:40.665Z,88936.66
2023-05-21T13:30:08.992Z,88927.28
2023-05-21T13:32:37.091Z,88925.16
2023-05-21T13:35:04.653Z,88937.19
2023-05-21T13:37:31.661Z,88939.13
2023-05-21T13:39:59.133Z,88937.88
2023-05-21T13:42:25.998Z,88937.75
2023-05-21T13:44:59.057Z,88939.53
2023-05-21T13:47:27.836Z,88937.56
2023-05-21T13:49:54.857Z,88938.47
2023-05-21T13:52:24.232Z,88938.31
2023-05-21T13:54:51.202Z,88930.56
2023-05-21T13:57:23.632Z,88940.44
2023-05-21T13:59:50.495Z,88939.94
2023-05-21T14:02:19.119Z,88941.34
2023-05-21T14:04:45.951Z,88933.03
2023-05-21T14:07:12.886Z,88927.66
2023-05-21T14:09:39.821Z,88929.84
2023-05-21T14:12:09.498Z,88931.44
2023-05-21T14:14:36.352Z,88920.13
2023-05-21T14:17:03.280Z,88936.66
2023-05-21T14:19:30.475Z,88924.72
2023-05-21T14:21:57.371Z,88928.56
2023-05-21T14:24:24.281Z,88929.75
2023-05-21T14:26:51.217Z,88922.72
2023-05-21T14:31:44.834Z,88917.22
2023-05-21T14:34:11.793Z,88921.63
2023-05-21T14:36:38.688Z,88925.84
2023-05-21T14:39:05.748Z,88927.81
2023-05-21T14:41:32.746Z,88928.31
2023-05-21T14:43:59.613Z,88932.63
2023-05-21T14:46:26.670Z,88931.25
2023-05-21T14:48:53.666Z,88926.25
2023-05-21T14:51:20.620Z,88931.81
2023-05-21T14:53:47.791Z,88927.84
2023-05-21T14:56:14.718Z,88923.22
2023-05-21T14:58:41.644Z,88931.53
2023-05-21T15:01:08.880Z,88932.16
2023-05-21T15:03:35.849Z,88933.81
2023-05-21T15:06:02.702Z,88928.00
2023-05-21T15:08:29.718Z,88934.94
2023-05-21T15:10:57.270Z,88935.09
2023-05-21T15:13:24.299Z,88937.44
2023-05-21T15:18:18.663Z,88939.94
2023-05-21T15:20:45.554Z,88938.94
2023-05-21T15:23:17.241Z,88944.25
2023-05-21T15:25:45.040Z,88946.94
2023-05-21T15:28:12.517Z,88940.66
2023-05-21T15:30:39.901Z,88945.88
2023-05-21T15:33:06.777Z,88935.59
2023-05-21T15:35:35.438Z,88950.00
2023-05-21T15:38:02.786Z,88948.06
2023-05-21T15:40:29.709Z,88954.16
2023-05-21T15:42:56.565Z,88956.34
2023-05-21T15:45:24.834Z,88963.16
2023-05-21T15:47:51.860Z,88954.50
2023-05-21T15:50:18.764Z,88953.03
2023-05-21T15:52:45.847Z,88951.75
2023-05-21T15:55:12.703Z,88951.47
2023-05-21T15:57:39.685Z,88957.78
2023-05-21T16:00:07.350Z,88950.22
2023-05-21T16:02:34.246Z,88949.59
2023-05-21T16:05:01.229Z,88962.31
2023-05-21T16:07:28.274Z,88956.28
2023-05-21T16:09:55.261Z,88967.25
2023-05-21T16:12:22.165Z,88965.38
2023-05-21T16:14:49.435Z,88966.63
2023-05-21T16:17:16.828Z,88970.06
2023-05-21T16:19:43.877Z,88972.66
2023-05-21T16:22:11.153Z,88978.34
2023-05-21T16:24:38.127Z,88965.72
2023-05-21T16:27:05.312Z,88964.28
2023-05-21T16:29:34.541Z,88966.97
2023-05-21T16:32:01.686Z,88963.56
2023-05-21T16:34:31.481Z,88968.06
2023-05-21T16:36:58.677Z,88972.72
2023-05-21T16:39:25.658Z,88963.28
2023-05-21T16:41:52.513Z,88965.00
2023-05-21T16:44:19.468Z,88966.59
2023-05-21T16:46:46.435Z,88974.78
2023-05-21T16:49:13.432Z,88980.91
2023-05-21T16:51:40.528Z,88981.13
2023-05-21T16:54:07.756Z,88980.94
2023-05-21T16:56:34.653Z,88973.88
2023-05-21T16:59:01.707Z,88964.56
2023-05-21T17:01:28.623Z,88971.00
2023-05-21T17:03:55.574Z,88966.28
2023-05-21T17:06:23.605Z,88982.91
2023-05-21T17:08:50.468Z,88971.75
2023-05-21T17:11:17.959Z,88962.97
2023-05-21T17:13:45.364Z,88972.78
2023-05-21T17:16:12.482Z,88960.09
2023-05-21T17:18:39.734Z,88964.41
2023-05-21T17:21:09.591Z,88967.44
2023-05-21T17:23:36.697Z,88959.47
2023-05-21T17:26:03.737Z,88960.69
2023-05-21T17:28:30.644Z,88961.53
2023-05-21T17:30:57.592Z,88953.06
2023-05-21T17:33:24.464Z,88957.81
2023-05-21T17:35:51.439Z,88961.81
2023-05-21T17:38:18.357Z,88962.25
2023-05-21T17:40:45.195Z,88966.50
2023-05-21T17:43:12.214Z,88972.06
2023-05-21T17:45:39.613Z,88978.69
2023-05-21T17:48:09.867Z,88981.38
2023-05-21T17:50:36.740Z,88982.56
2023-05-21T17:53:03.659Z,88984.22
2023-05-21T17:55:30.770Z,88984.31
2023-05-21T17:57:57.710Z,88987.94
2023-05-21T18:00:24.586Z,88996.94
2023-05-21T18:02:51.480Z,88992.28
2023-05-21T18:05:18.606Z,88988.31
2023-05-21T18:07:45.592Z,88988.13
2023-05-21T18:10:12.420Z,88994.28
2023-05-21T18:12:39.832Z,89006.47
2023-05-21T18:15:07.520Z,89003.16
2023-05-21T18:17:34.473Z,89002.03
2023-05-21T18:20:01.519Z,89005.91
2023-05-21T18:22:28.447Z,89000.91
2023-05-21T18:24:55.375Z,89001.59
2023-05-21T18:27:22.462Z,89003.03
2023-05-21T18:29:49.396Z,89006.78
2023-05-21T18:32:16.501Z,89011.97
2023-05-21T18:34:43.557Z,89008.59
2023-05-21T18:37:11.073Z,89014.88
2023-05-21T18:39:38.087Z,89005.19
2023-05-21T18:44:39.174Z,89004.38
2023-05-21T18:47:06.262Z,89000.94
2023-05-21T18:49:33.377Z,89007.66
2023-05-21T18:52:00.512Z,89001.34
2023-05-21T18:54:27.556Z,89015.53
2023-05-21T18:56:54.526Z,89008.72
2023-05-21T18:59:21.435Z,89011.19
2023-05-21T19:01:51.206Z,89007.06
2023-05-21T19:04:18.153Z,89012.41
2023-05-21T19:06:45.039Z,89008.41
2023-05-21T19:09:12.059Z,89011.31
2023-05-21T19:11:39.444Z,89005.34
2023-05-21T19:14:06.301Z,89002.84
2023-05-21T19:16:33.337Z,89002.88
2023-05-21T19:19:00.297Z,89007.84
2023-05-21T19:21:27.451Z,89006.41
2023-05-21T19:23:59.654Z,89006.94
2023-05-21T19:26:26.549Z,89007.25
2023-05-21T19:28:53.791Z,89008.03
2023-05-21T19:31:24.034Z,89012.28
2023-05-21T19:33:51.449Z,89014.59
2023-05-21T19:36:18.407Z,89013.50
2023-05-21T19:38:49.261Z,89009.13
2023-05-21T19:41:17.340Z,89012.16
2023-05-21T19:43:45.357Z,89014.69
2023-05-21T19:46:20.040Z,89011.25
2023-05-21T19:48:47.668Z,89015.31
2023-05-21T19:51:14.622Z,89013.28
2023-05-21T19:53:41.554Z,89005.63
2023-05-21T19:56:08.728Z,89011.81
2023-05-21T19:58:35.752Z,89011.09
2023-05-21T20:01:03.052Z,89005.59
2023-05-21T20:03:29.988Z,89010.97
2023-05-21T20:05:56.867Z,89004.75
2023-05-21T20:08:23.703Z,89004.41
2023-05-21T20:10:51.947Z,89007.09
2023-05-21T20:13:19.264Z,88996.44
2023-05-21T20:15:46.241Z,89003.22
2023-05-21T20:18:13.484Z,89002.94
2023-05-21T20:20:40.960Z,88995.41
2023-05-21T20:23:08.598Z,89000.63
2023-05-21T20:25:35.561Z,89000.41
2023-05-21T20:28:02.628Z,89003.97
2023-05-21T20:30:33.176Z,89003.25
2023-05-21T20:33:03.796Z,89004.75
2023-05-21T20:35:30.889Z,88999.56
2023-05-21T20:38:00.492Z,89001.00
2023-05-21T20:40:30.158Z,88995.22
2023-05-21T20:42:57.068Z,88988.25
2023-05-21T20:45:23.940Z,89001.19
2023-05-21T20:47:50.878Z,88992.22
2023-05-21T20:50:18.037Z,88995.91
2023-05-21T20:52:47.023Z,88995.53
2023-05-21T20:55:14.605Z,88994.31
2023-05-21T20:57:41.834Z,88997.94
2023-05-21T21:00:10.702Z,88995.53
2023-05-21T21:02:38.153Z,88997.47
2023-05-21T21:05:07.734Z,88997.06
2023-05-21T21:07:42.105Z,88997.13
2023-05-21T21:10:09.514Z,88994.59
2023-05-21T21:12:36.342Z,88993.31
2023-05-21T21:15:06.623Z,88994.66
2023-05-21T21:17:33.650Z,89003.25
2023-05-21T21:20:00.524Z,89002.22
2023-05-21T21:22:28.916Z,88997.75
2023-05-21T21:24:55.761Z,88996.97
2023-05-21T21:27:22.636Z,89004.88
2023-05-21T21:29:49.570Z,88996.34
2023-05-21T21:32:16.521Z,89010.16
2023-05-21T21:34:43.566Z,89004.50
2023-05-21T21:37:11.122Z,89002.09
2023-05-21T21:39:38.488Z,89007.09
2023-05-21T21:42:05.721Z,89006.78
2023-05-21T21:44:32.657Z,89008.50
2023-05-21T21:46:59.507Z,89004.34
2023-05-21T21:49:26.332Z,89009.94
2023-05-21T21:51:53.320Z,89001.63
2023-05-21T21:54:20.149Z,89003.25
2023-05-21T21:56:47.068Z,89003.69
2023-05-21T21:59:13.928Z,89004.31
2023-05-21T22:01:40.808Z,89004.00
2023-05-21T22:04:07.712Z,89000.06
2023-05-21T22:06:34.700Z,88998.38
2023-05-21T22:09:01.729Z,88994.66
2023-05-21T22:11:28.697Z,88997.16
2023-05-21T22:13:55.619Z,88994.38
2023-05-21T22:16:22.618Z,88993.53
2023-05-21T22:18:49.564Z,88993.97
2023-05-21T22:21:16.531Z,88993.97
2023-05-21T22:23:43.486Z,88993.25
2023-05-21T22:26:10.374Z,88995.19
2023-05-21T22:28:37.425Z,88993.25
2023-05-21T22:31:04.684Z,88999.91
2023-05-21T22:33:40.737Z,88994.78
2023-05-21T22:36:07.944Z,88999.03
2023-05-21T22:38:34.724Z,88994.75
2023-05-21T22:41:01.883Z,88988.44
2023-05-21T22:43:28.801Z,89000.84
2023-05-21T22:45:55.738Z,88992.53
2023-05-21T22:48:22.946Z,88992.94
2023-05-21T22:50:50.264Z,88994.59
2023-05-21T22:53:17.556Z,89003.22
2023-05-21T22:55:44.677Z,88992.53
2023-05-21T22:58:11.588Z,88990.09
2023-05-21T23:00:38.678Z,88988.84
2023-05-21T23:23:42.652Z,88991.91
2023-05-21T23:26:09.555Z,88991.50
2023-05-21T23:28:36.442Z,88985.56
2023-05-21T23:31:03.790Z,88989.16
2023-05-21T23:33:30.705Z,88987.09
2023-05-21T23:35:57.624Z,88992.66
2023-05-21T23:38:25.274Z,88987.69
2023-05-21T23:40:52.274Z,88984.69
2023-05-21T23:43:19.336Z,88977.84
2023-05-21T23:45:46.362Z,88987.44
2023-05-21T23:48:13.298Z,88988.03
2023-05-21T23:50:40.494Z,88987.41
2023-05-21T23:53:07.807Z,88989.31
2023-05-21T23:55:34.725Z,88980.06
2023-05-21T23:58:01.620Z,88983.47
